Livingston, Texas
Current Conditions -  °F | °C
As of 3:35 PM on Friday 31 Oct 2014 (Local Time) from K6R3 Reporting Station
Clear Clear  
Wind Chill: 76°   Ceiling: Unl
Heat Index: 76°   Visibility: 10mi
Dew Point: 46°   Wind: 9mph
Humidity: 35%   Direction: 350°N
Pressure: 30.15"   Gusts: 17mph
Location:  30.71°N, 94.94°W
Report Text: K6R3 312035Z AUTO 35008G15KT 330V030 10SM CLR 24/08 A3015 RMK AO2 T02420076
Loading
Personal Weather Stations






























Interactive Weather Map
Tropical Storm Tracking
New forecast layout! Learn more

10-Day Weather Forecast

Advertisements
Track Severe Weather on mobile